createdAt,value
2022-11-16T00:01:39.930Z,197.88
2022-11-16T00:04:06.547Z,191.80
2022-11-16T00:06:33.071Z,132.73
2022-11-16T00:09:20.914Z,179.25
2022-11-16T00:11:50.246Z,132.65
2022-11-16T00:14:17.600Z,169.18
2022-11-16T00:16:44.222Z,155.90
2022-11-16T00:19:11.536Z,157.15
2022-11-16T00:21:38.073Z,161.30
2022-11-16T00:24:05.408Z,136.57
2022-11-16T00:26:31.820Z,153.85
2022-11-16T00:28:58.553Z,178.13
2022-11-16T00:31:25.192Z,134.77
2022-11-16T00:33:52.011Z,138.93
2022-11-16T00:36:18.685Z,218.52
2022-11-16T00:38:45.087Z,166.75
2022-11-16T00:41:11.591Z,151.85
2022-11-16T00:43:38.127Z,134.38
2022-11-16T00:46:05.260Z,147.77
2022-11-16T00:48:32.070Z,143.73
2022-11-16T00:50:58.783Z,141.07
2022-11-16T00:53:25.198Z,121.50
2022-11-16T00:55:51.868Z,153.73
2022-11-16T00:58:18.259Z,122.57
2022-11-16T01:00:44.729Z,124.57
2022-11-16T01:03:11.215Z,118.28
2022-11-16T01:05:37.697Z,174.68
2022-11-16T01:08:04.738Z,141.43
2022-11-16T01:10:31.283Z,122.60
2022-11-16T01:12:57.915Z,132.88
2022-11-16T01:15:26.779Z,123.15
2022-11-16T01:17:55.051Z,128.50
2022-11-16T01:20:24.491Z,141.55
2022-11-16T01:22:51.633Z,129.45
2022-11-16T01:25:18.189Z,117.97
2022-11-16T01:27:44.716Z,166.32
2022-11-16T01:30:14.054Z,121.88
2022-11-16T01:32:40.459Z,137.57
2022-11-16T01:35:07.466Z,129.63
2022-11-16T01:37:33.903Z,123.47
2022-11-16T01:40:00.371Z,134.30
2022-11-16T01:42:28.864Z,127.53
2022-11-16T01:44:57.797Z,142.10
2022-11-16T01:47:24.234Z,134.38
2022-11-16T01:50:01.048Z,126.18
2022-11-16T01:52:31.571Z,141.27
2022-11-16T01:54:58.296Z,124.80
2022-11-16T01:57:32.663Z,123.68
2022-11-16T02:00:00.917Z,137.50
2022-11-16T02:02:27.488Z,129.40
2022-11-16T02:04:55.436Z,132.68
2022-11-16T02:07:31.865Z,131.40
2022-11-16T02:10:08.680Z,117.00
2022-11-16T02:12:53.688Z,138.45
2022-11-16T02:15:43.382Z,133.10
2022-11-16T02:18:36.148Z,127.88
2022-11-16T02:21:33.909Z,147.43
2022-11-16T02:24:35.442Z,177.88
2022-11-16T02:27:18.118Z,147.70
2022-11-16T02:29:54.572Z,143.07
2022-11-16T02:32:45.112Z,157.77
2022-11-16T02:35:23.810Z,138.75
2022-11-16T02:37:59.049Z,148.70
2022-11-16T02:40:30.688Z,145.65
2022-11-16T02:45:33.842Z,133.55
2022-11-16T02:48:07.406Z,168.23
2022-11-16T02:50:35.565Z,164.70
2022-11-16T02:53:02.862Z,203.40
2022-11-16T02:55:32.559Z,132.63
2022-11-16T02:58:01.899Z,152.80
2022-11-16T03:00:35.879Z,179.27
2022-11-16T03:03:08.827Z,156.88
2022-11-16T03:05:41.707Z,157.52
2022-11-16T03:08:39.191Z,184.10
2022-11-16T03:11:27.021Z,188.48
2022-11-16T03:14:03.643Z,154.10
2022-11-16T03:16:34.864Z,179.32
2022-11-16T03:19:05.238Z,160.93
2022-11-16T03:22:07.896Z,139.10
2022-11-16T03:24:34.450Z,150.23
2022-11-16T03:27:19.777Z,168.27
2022-11-16T03:30:06.151Z,148.80
2022-11-16T03:32:51.173Z,148.35
2022-11-16T03:35:30.496Z,133.07
2022-11-16T03:37:59.794Z,122.80
2022-11-16T03:40:30.317Z,132.90
2022-11-16T03:42:59.396Z,146.65
2022-11-16T03:45:26.551Z,152.90
2022-11-16T03:47:52.953Z,127.30
2022-11-16T03:50:19.467Z,151.27
2022-11-16T03:52:45.946Z,134.10
2022-11-16T03:55:12.343Z,148.23
2022-11-16T03:57:38.788Z,161.10
2022-11-16T04:00:06.887Z,140.70
2022-11-16T04:02:33.302Z,127.93
2022-11-16T04:05:18.227Z,151.57
2022-11-16T04:08:03.236Z,163.82
2022-11-16T04:10:48.385Z,157.10
2022-11-16T04:13:34.519Z,148.02
2022-11-16T04:16:19.519Z,155.60
2022-11-16T04:19:04.656Z,158.70
2022-11-16T04:21:59.393Z,151.75
2022-11-16T04:24:30.040Z,153.68
2022-11-16T04:27:18.897Z,169.90
2022-11-16T04:29:45.409Z,173.63
2022-11-16T04:32:30.769Z,176.80
2022-11-16T04:35:16.162Z,170.23
2022-11-16T04:37:48.635Z,187.57
2022-11-16T04:40:27.904Z,191.35
2022-11-16T04:42:56.346Z,203.90
2022-11-16T04:45:42.406Z,200.25
2022-11-16T04:48:09.821Z,203.52
2022-11-16T04:50:36.883Z,208.95
2022-11-16T04:53:04.380Z,207.98
2022-11-16T04:55:31.103Z,205.63
2022-11-16T04:57:57.476Z,242.20
2022-11-16T05:00:24.029Z,230.57
2022-11-16T05:02:50.606Z,213.95
2022-11-16T05:05:17.453Z,223.73
2022-11-16T05:07:44.120Z,247.82
2022-11-16T05:10:11.505Z,222.65
2022-11-16T05:12:38.310Z,251.60
2022-11-16T05:15:06.195Z,248.27
2022-11-16T05:17:33.211Z,228.75
2022-11-16T05:20:18.289Z,227.40
2022-11-16T05:22:44.707Z,219.57
2022-11-16T05:25:12.340Z,241.52
2022-11-16T05:27:38.775Z,228.50
2022-11-16T05:30:06.586Z,228.63
2022-11-16T05:32:33.030Z,226.50
2022-11-16T05:34:59.405Z,211.77
2022-11-16T05:37:26.819Z,228.55
2022-11-16T05:39:54.801Z,226.98
2022-11-16T05:42:21.233Z,251.02
2022-11-16T05:44:47.766Z,238.68
2022-11-16T05:47:14.298Z,262.45
2022-11-16T05:49:40.707Z,249.20
2022-11-16T05:52:07.196Z,240.43
2022-11-16T05:54:33.598Z,242.35
2022-11-16T05:57:00.037Z,243.18
2022-11-16T05:59:27.732Z,247.93
2022-11-16T06:01:54.129Z,248.30
2022-11-16T06:04:24.361Z,233.55
2022-11-16T06:06:51.275Z,172.52
2022-11-16T06:09:17.680Z,244.02
2022-11-16T06:11:44.175Z,250.77
2022-11-16T06:14:10.623Z,241.95
2022-11-16T06:16:37.087Z,257.63
2022-11-16T06:19:03.551Z,233.77
2022-11-16T06:21:30.119Z,239.10
2022-11-16T06:23:56.539Z,227.70
2022-11-16T06:26:22.964Z,237.60
2022-11-16T06:28:49.477Z,272.20
2022-11-16T06:31:16.020Z,266.00
2022-11-16T06:33:42.512Z,245.98
2022-11-16T06:36:09.066Z,244.68
2022-11-16T06:38:35.687Z,276.77
2022-11-16T06:41:03.087Z,292.77
2022-11-16T06:43:29.578Z,235.02
2022-11-16T06:46:00.328Z,228.80
2022-11-16T06:48:26.860Z,231.80
2022-11-16T06:50:53.875Z,221.07
2022-11-16T06:53:24.595Z,239.98
2022-11-16T06:55:54.138Z,235.77
2022-11-16T06:58:20.542Z,236.98
2022-11-16T07:00:47.022Z,225.35
2022-11-16T07:03:13.460Z,229.98
2022-11-16T07:05:41.902Z,231.50
2022-11-16T07:08:08.361Z,224.98
2022-11-16T07:10:34.829Z,228.95
2022-11-16T07:13:03.380Z,233.25
2022-11-16T07:15:30.343Z,238.40
2022-11-16T07:17:56.770Z,231.65
2022-11-16T07:20:23.244Z,235.60
2022-11-16T07:22:49.702Z,250.80
2022-11-16T07:25:16.216Z,253.48
2022-11-16T07:27:42.732Z,249.13
2022-11-16T07:30:09.615Z,257.52
2022-11-16T07:32:36.005Z,255.05
2022-11-16T07:35:02.500Z,258.70
2022-11-16T07:37:28.961Z,256.42
2022-11-16T07:39:55.416Z,270.05
2022-11-16T07:42:21.806Z,282.05
2022-11-16T07:44:48.274Z,273.60
2022-11-16T07:47:14.744Z,303.48
2022-11-16T07:49:41.214Z,282.52
2022-11-16T07:52:10.766Z,292.05
2022-11-16T07:54:37.372Z,273.02
2022-11-16T07:57:03.843Z,276.05
2022-11-16T07:59:30.268Z,292.10
2022-11-16T08:01:59.198Z,335.77
2022-11-16T08:04:25.845Z,296.30
2022-11-16T08:06:52.376Z,276.80
2022-11-16T08:09:18.907Z,306.25
2022-11-16T08:11:47.072Z,303.85
2022-11-16T08:14:13.910Z,291.60
2022-11-16T08:16:40.349Z,290.55
2022-11-16T08:19:06.884Z,295.85
2022-11-16T08:21:33.294Z,294.92
2022-11-16T08:23:59.743Z,297.20
2022-11-16T08:26:27.527Z,284.02
2022-11-16T08:28:55.607Z,285.42
2022-11-16T08:31:24.876Z,288.90
2022-11-16T08:33:54.460Z,287.25
2022-11-16T08:36:22.556Z,280.92
2022-11-16T08:38:50.642Z,282.27
2022-11-16T08:41:18.331Z,263.40
2022-11-16T08:43:47.063Z,261.65
2022-11-16T08:46:14.365Z,263.85
2022-11-16T08:48:41.598Z,280.25
2022-11-16T08:51:19.431Z,250.63
2022-11-16T08:53:48.202Z,258.05
2022-11-16T08:56:16.443Z,237.50
2022-11-16T08:58:47.267Z,231.05
2022-11-16T09:01:19.974Z,251.35
2022-11-16T09:03:46.810Z,243.93
2022-11-16T09:06:13.673Z,227.40
2022-11-16T09:08:41.958Z,223.35
2022-11-16T09:11:11.571Z,229.77
2022-11-16T09:13:38.087Z,229.90
2022-11-16T09:16:05.142Z,223.70
2022-11-16T09:18:32.110Z,227.90
2022-11-16T09:20:59.292Z,203.27
2022-11-16T09:23:26.028Z,220.25
2022-11-16T09:25:54.170Z,242.45
2022-11-16T09:28:22.568Z,190.60
2022-11-16T09:30:51.108Z,202.48
2022-11-16T09:33:17.799Z,191.10
2022-11-16T09:35:44.260Z,175.95
2022-11-16T09:38:13.638Z,191.07
2022-11-16T09:40:46.064Z,176.88
2022-11-16T09:43:31.092Z,178.57
2022-11-16T09:46:17.722Z,151.02
2022-11-16T09:48:44.850Z,152.38
2022-11-16T09:51:15.634Z,135.20
2022-11-16T09:53:48.048Z,98.70
2022-11-16T09:56:23.529Z,137.50
2022-11-16T09:59:19.469Z,136.18
2022-11-16T10:01:58.705Z,115.25
2022-11-16T10:04:47.250Z,82.60
2022-11-16T10:07:22.491Z,81.53
2022-11-16T10:09:49.340Z,73.95
2022-11-16T10:12:34.884Z,95.97
2022-11-16T10:15:36.509Z,85.72
2022-11-16T10:18:28.489Z,80.03
2022-11-16T10:21:27.617Z,64.68
2022-11-16T10:24:16.940Z,77.53
2022-11-16T10:27:22.275Z,79.22
2022-11-16T10:30:06.999Z,74.28
2022-11-16T10:32:53.647Z,75.78
2022-11-16T10:35:30.833Z,69.05
2022-11-16T10:37:59.795Z,74.93
2022-11-16T10:40:29.369Z,76.03
2022-11-16T10:43:20.556Z,68.93
2022-11-16T10:46:00.391Z,61.55
2022-11-16T10:48:37.379Z,75.63
2022-11-16T10:51:05.065Z,75.85
2022-11-16T10:53:35.451Z,66.70
2022-11-16T10:56:14.207Z,77.50
2022-11-16T10:58:49.811Z,71.68
2022-11-16T11:01:28.891Z,66.53
2022-11-16T11:03:55.361Z,73.22
2022-11-16T11:06:26.479Z,67.50
2022-11-16T11:08:52.956Z,61.70
2022-11-16T11:11:40.735Z,64.50
2022-11-16T11:14:15.674Z,66.47
2022-11-16T11:16:42.265Z,58.03
2022-11-16T11:19:23.967Z,62.72
2022-11-16T11:24:43.319Z,51.67
2022-11-16T11:27:05.417Z,54.45
2022-11-16T11:29:35.813Z,56.53
2022-11-16T11:32:07.946Z,54.17
2022-11-16T11:34:41.732Z,56.38
2022-11-16T11:37:15.948Z,54.95
2022-11-16T11:39:42.791Z,50.05
2022-11-16T11:42:12.260Z,52.15
2022-11-16T11:44:51.865Z,50.95
2022-11-16T11:47:58.198Z,50.92
2022-11-16T11:50:44.569Z,53.95
2022-11-16T11:53:29.569Z,56.00
2022-11-16T11:55:58.285Z,51.92
2022-11-16T11:58:33.920Z,56.13
2022-11-16T12:01:25.491Z,63.55
2022-11-16T12:06:38.746Z,63.10
2022-11-16T12:09:20.816Z,61.72
2022-11-16T12:11:59.506Z,55.30
2022-11-16T12:14:51.305Z,57.50
2022-11-16T12:17:55.111Z,57.55
2022-11-16T12:20:45.947Z,61.88
2022-11-16T12:23:37.686Z,63.88
2022-11-16T12:28:58.516Z,61.63
2022-11-16T12:31:33.731Z,59.25
2022-11-16T12:34:21.909Z,60.15
2022-11-16T12:37:20.793Z,67.55
2022-11-16T12:40:05.618Z,66.97
2022-11-16T12:42:42.487Z,60.92
2022-11-16T12:45:36.918Z,66.72
2022-11-16T12:48:22.361Z,61.10
2022-11-16T12:51:27.540Z,67.07
2022-11-16T12:54:09.070Z,61.67
2022-11-16T12:56:54.863Z,62.72
2022-11-16T12:59:49.204Z,60.58
2022-11-16T13:02:53.709Z,57.05
2022-11-16T13:05:28.863Z,61.78
2022-11-16T13:08:22.243Z,58.17
2022-11-16T13:10:53.363Z,63.20
2022-11-16T13:13:41.446Z,58.05
2022-11-16T13:16:09.543Z,62.47
2022-11-16T13:18:41.401Z,57.40
2022-11-16T13:21:18.998Z,51.83
2022-11-16T13:24:41.418Z,56.97
2022-11-16T13:27:29.370Z,59.63
2022-11-16T13:30:22.108Z,57.33
2022-11-16T13:33:03.586Z,52.63
2022-11-16T13:35:30.284Z,58.90
2022-11-16T13:37:56.715Z,48.67
2022-11-16T13:40:27.261Z,52.58
2022-11-16T13:43:04.830Z,53.05
2022-11-16T13:45:55.429Z,46.72
2022-11-16T13:48:35.514Z,49.00
2022-11-16T13:51:05.719Z,53.00
2022-11-16T13:56:51.296Z,48.45
2022-11-16T13:59:25.237Z,51.05
2022-11-16T14:02:22.404Z,49.22
2022-11-16T14:05:00.414Z,45.53
2022-11-16T14:07:31.546Z,49.35
2022-11-16T14:09:58.517Z,43.70
2022-11-16T14:12:53.963Z,50.13
2022-11-16T14:15:25.147Z,48.63
2022-11-16T14:17:54.445Z,41.10
2022-11-16T14:20:41.177Z,41.97
2022-11-16T14:23:22.510Z,57.70
2022-11-16T14:26:03.533Z,40.35
2022-11-16T14:28:53.761Z,30.65
2022-11-16T14:31:31.691Z,42.78
2022-11-16T14:34:00.423Z,41.63
2022-11-16T14:36:42.853Z,42.00
2022-11-16T14:39:24.113Z,41.38
2022-11-16T14:41:51.517Z,51.50
2022-11-16T14:44:21.769Z,38.85
2022-11-16T14:46:48.469Z,39.75
2022-11-16T14:49:17.839Z,40.63
2022-11-16T14:51:48.796Z,38.58
2022-11-16T14:54:29.563Z,39.08
2022-11-16T14:57:04.378Z,43.35
2022-11-16T14:59:31.610Z,48.95
2022-11-16T15:02:03.169Z,43.55
2022-11-16T15:07:01.627Z,44.95
2022-11-16T15:09:37.873Z,41.75
2022-11-16T15:12:25.093Z,45.85
2022-11-16T15:14:54.498Z,45.28
2022-11-16T15:17:27.210Z,44.55
2022-11-16T15:19:56.840Z,52.85
2022-11-16T15:22:25.205Z,50.65
2022-11-16T15:25:01.741Z,50.15
2022-11-16T15:27:36.639Z,50.78
2022-11-16T15:30:25.078Z,56.42
2022-11-16T15:32:52.884Z,45.45
2022-11-16T15:35:24.759Z,47.80
2022-11-16T15:38:15.832Z,50.45
2022-11-16T15:41:04.041Z,48.90
2022-11-16T15:43:45.355Z,45.47
2022-11-16T15:46:23.339Z,52.90
2022-11-16T15:48:50.423Z,48.20
2022-11-16T15:51:23.079Z,50.00
2022-11-16T15:53:54.466Z,49.72
2022-11-16T15:56:26.946Z,49.45
2022-11-16T15:58:55.814Z,47.33
2022-11-16T16:01:23.466Z,44.47
2022-11-16T16:04:01.485Z,43.03
2022-11-16T16:06:52.104Z,47.17
2022-11-16T16:09:30.655Z,50.03
2022-11-16T16:12:19.729Z,47.80
2022-11-16T16:14:48.517Z,50.03
2022-11-16T16:17:24.222Z,48.08
2022-11-16T16:20:00.846Z,40.90
2022-11-16T16:22:37.133Z,47.53
2022-11-16T16:25:06.307Z,49.90
2022-11-16T16:27:39.918Z,40.53
2022-11-16T16:30:07.464Z,37.72
2022-11-16T16:32:37.011Z,42.47
2022-11-16T16:35:07.635Z,34.97
2022-11-16T16:37:36.019Z,27.50
2022-11-16T16:40:03.503Z,37.13
2022-11-16T16:42:29.889Z,31.65
2022-11-16T16:44:59.493Z,31.20
2022-11-16T16:47:25.925Z,32.85
2022-11-16T16:49:52.291Z,32.03
2022-11-16T16:52:18.896Z,31.08
2022-11-16T16:54:45.319Z,36.90
2022-11-16T16:57:16.457Z,35.05
2022-11-16T16:59:48.285Z,35.47
2022-11-16T17:02:16.289Z,36.13
2022-11-16T17:04:43.985Z,36.78
2022-11-16T17:07:10.455Z,32.28
2022-11-16T17:09:36.849Z,34.28
2022-11-16T17:12:03.768Z,36.30
2022-11-16T17:14:30.886Z,33.35
2022-11-16T17:16:57.319Z,32.15
2022-11-16T17:19:24.007Z,36.53
2022-11-16T17:21:53.427Z,34.75
2022-11-16T17:24:20.040Z,29.17
2022-11-16T17:26:49.476Z,27.58
2022-11-16T17:29:16.399Z,32.33
2022-11-16T17:31:44.704Z,30.50
2022-11-16T17:34:13.702Z,34.92
2022-11-16T17:36:40.774Z,30.77
2022-11-16T17:39:07.220Z,27.23
2022-11-16T17:41:33.686Z,25.95
2022-11-16T17:44:00.308Z,25.60
2022-11-16T17:46:26.753Z,32.13
2022-11-16T17:48:53.163Z,27.48
2022-11-16T17:51:21.450Z,26.75
2022-11-16T17:53:49.702Z,27.23
2022-11-16T17:56:18.810Z,30.70
2022-11-16T17:58:45.418Z,32.53
2022-11-16T18:01:13.118Z,27.48
2022-11-16T18:03:40.047Z,25.75
2022-11-16T18:06:09.185Z,29.08
2022-11-16T18:08:36.787Z,32.60
2022-11-16T18:11:15.446Z,26.30
2022-11-16T18:13:43.288Z,33.80
2022-11-16T18:16:18.382Z,23.30
2022-11-16T18:18:46.691Z,23.15
2022-11-16T18:21:20.413Z,24.55
2022-11-16T18:23:48.013Z,21.52
2022-11-16T18:26:20.526Z,26.98
2022-11-16T18:28:51.576Z,27.33
2022-11-16T18:31:22.666Z,24.88
2022-11-16T18:33:49.631Z,21.75
2022-11-16T18:36:17.217Z,23.80
2022-11-16T18:38:43.728Z,25.08
2022-11-16T18:41:12.896Z,20.80
2022-11-16T18:44:02.542Z,21.33
2022-11-16T18:46:32.842Z,20.60
2022-11-16T18:48:59.997Z,19.00
2022-11-16T18:51:27.801Z,20.67
2022-11-16T18:53:55.206Z,23.17
2022-11-16T18:56:22.108Z,19.00
2022-11-16T18:58:51.431Z,20.83
2022-11-16T19:01:21.744Z,22.55
2022-11-16T19:03:48.374Z,22.05
2022-11-16T19:06:15.543Z,17.45
2022-11-16T19:08:42.457Z,19.17
2022-11-16T19:11:14.396Z,19.00
2022-11-16T19:13:42.705Z,17.00
2022-11-16T19:16:10.847Z,20.10
2022-11-16T19:18:37.500Z,21.75
2022-11-16T19:21:11.521Z,21.20
2022-11-16T19:23:42.919Z,18.40
2022-11-16T19:26:12.269Z,20.83
2022-11-16T19:28:43.536Z,21.33
2022-11-16T19:31:12.194Z,17.52
2022-11-16T19:33:39.486Z,19.90
2022-11-16T19:36:13.760Z,16.77
2022-11-16T19:38:40.428Z,17.90
2022-11-16T19:41:08.157Z,23.42
2022-11-16T19:43:35.040Z,21.02
2022-11-16T19:46:04.003Z,27.55
2022-11-16T19:48:32.289Z,18.65
2022-11-16T19:51:19.879Z,16.60
2022-11-16T19:53:46.883Z,13.23
2022-11-16T19:56:15.628Z,13.35
2022-11-16T19:58:43.054Z,14.57
2022-11-16T20:01:20.990Z,16.02
2022-11-16T20:03:48.949Z,18.23
2022-11-16T20:06:21.472Z,14.20
2022-11-16T20:08:50.699Z,13.15
2022-11-16T20:11:20.617Z,15.38
2022-11-16T20:13:52.055Z,18.98
2022-11-16T20:16:20.453Z,14.68
2022-11-16T20:18:47.573Z,12.55
2022-11-16T20:21:21.299Z,12.73
2022-11-16T20:23:47.883Z,15.68
2022-11-16T20:26:15.195Z,15.27
2022-11-16T20:28:42.821Z,14.18
2022-11-16T20:31:14.432Z,15.20
2022-11-16T20:36:11.825Z,15.32
2022-11-16T20:38:39.089Z,15.13
2022-11-16T20:41:09.416Z,19.45
2022-11-16T20:43:36.322Z,13.35
2022-11-16T20:46:02.930Z,13.68
2022-11-16T20:48:29.404Z,11.65
2022-11-16T20:50:55.850Z,11.48
2022-11-16T20:53:22.570Z,13.98
2022-11-16T20:55:49.858Z,13.07
2022-11-16T20:58:22.475Z,16.98
2022-11-16T21:00:50.148Z,14.27
2022-11-16T21:03:17.112Z,12.38
2022-11-16T21:05:45.059Z,16.08
2022-11-16T21:08:12.263Z,16.55
2022-11-16T21:10:39.751Z,14.38
2022-11-16T21:13:25.951Z,15.45
2022-11-16T21:16:01.330Z,15.55
2022-11-16T21:18:30.906Z,18.65
2022-11-16T21:20:59.766Z,16.13
2022-11-16T21:23:28.295Z,16.55
2022-11-16T21:25:55.088Z,14.77
2022-11-16T21:28:25.422Z,19.05
2022-11-16T21:31:03.634Z,15.87
2022-11-16T21:33:30.235Z,16.92
2022-11-16T21:35:56.857Z,15.32
2022-11-16T21:38:27.868Z,16.50
2022-11-16T21:40:54.266Z,15.93
2022-11-16T21:43:20.668Z,14.82
2022-11-16T21:45:48.252Z,11.93
2022-11-16T21:48:14.790Z,15.63
2022-11-16T21:50:42.483Z,17.35
2022-11-16T21:53:09.585Z,16.52
2022-11-16T21:55:36.143Z,18.08
2022-11-16T21:58:03.592Z,15.05
2022-11-16T22:00:30.182Z,14.45
2022-11-16T22:02:56.558Z,16.77
2022-11-16T22:05:41.484Z,15.93
2022-11-16T22:08:11.470Z,14.70
2022-11-16T22:10:38.091Z,13.75
2022-11-16T22:13:04.624Z,16.48
2022-11-16T22:15:31.090Z,16.30
2022-11-16T22:17:57.468Z,14.93
2022-11-16T22:20:23.876Z,16.58
2022-11-16T22:22:50.293Z,14.05
2022-11-16T22:25:17.068Z,13.85
2022-11-16T22:28:13.528Z,13.73
2022-11-16T22:30:33.263Z,15.48
2022-11-16T22:32:59.705Z,12.80
2022-11-16T22:35:26.236Z,14.00
2022-11-16T22:37:52.844Z,15.13
2022-11-16T22:40:19.268Z,13.82
2022-11-16T22:42:46.013Z,14.90
2022-11-16T22:45:12.415Z,12.73
2022-11-16T22:47:38.851Z,13.70
2022-11-16T22:50:05.700Z,14.07
2022-11-16T22:52:32.113Z,15.45
2022-11-16T22:54:58.511Z,17.20
2022-11-16T22:57:24.919Z,11.93
2022-11-16T22:59:51.349Z,16.85
2022-11-16T23:02:17.797Z,12.02
2022-11-16T23:04:44.206Z,14.02
2022-11-16T23:07:10.656Z,16.45
2022-11-16T23:09:37.086Z,13.75
2022-11-16T23:12:22.151Z,18.73
2022-11-16T23:15:07.004Z,17.58
2022-11-16T23:17:33.393Z,20.67
2022-11-16T23:20:18.276Z,17.27
2022-11-16T23:23:03.381Z,13.65
2022-11-16T23:25:48.519Z,15.32
2022-11-16T23:28:16.579Z,15.43
2022-11-16T23:30:43.037Z,16.10
2022-11-16T23:33:10.160Z,16.52
2022-11-16T23:35:36.813Z,16.80
2022-11-16T23:38:05.828Z,17.08
2022-11-16T23:40:34.667Z,17.73
2022-11-16T23:43:19.791Z,27.58
2022-11-16T23:45:46.260Z,18.00
2022-11-16T23:48:15.428Z,14.73
2022-11-16T23:50:42.443Z,16.35
2022-11-16T23:53:10.064Z,17.50
2022-11-16T23:55:41.011Z,18.05
2022-11-16T23:58:12.471Z,20.55
